Date,TemperatureHighF,TemperatureAvgF,TemperatureLowF,DewpointHighF,DewpointAvgF,DewpointLowF,HumidityHigh,HumidityAvg,HumidityLow,PressureMaxIn,PressureMinIn,WindSpeedMaxMPH,WindSpeedAvgMPH,GustSpeedMaxMPH,PrecipitationSumIn
2014-1-1,82,76,74,74,71,64,90,83,70,30.18,30.03,16,4,16,0.08
2014-1-2,87,77,71,72,69,66,93,78,53,30.03,29.86,13,1,13,0.00
2014-1-3,73,66,60,71,56,43,94,72,51,30.17,29.88,18,5,18,0.00
2014-1-4,75,71,67,70,64,56,88,80,67,30.16,30.05,16,4,16,0.02
2014-1-5,83,75,70,74,70,66,91,83,68,30.06,29.94,17,1,17,0.01
2014-1-6,86,72,58,72,65,44,97,79,50,30.18,29.95,22,3,22,0.42
2014-1-7,58,53,49,51,43,29,90,68,42,30.29,30.17,19,5,19,0.06
2014-1-8,70,64,51,67,61,48,97,92,85,30.30,30.19,18,6,22,0.28
2014-1-9,77,74,70,74,71,67,94,91,87,30.22,30.10,21,5,21,0.14
2014-1-10,81,77,73,74,72,69,92,85,76,30.15,30.05,15,2,15,0.00
2014-1-11,84,78,72,74,72,70,94,83,67,30.10,29.97,15,1,15,0.00
2014-1-12,81,72,64,71,64,55,96,79,42,30.15,30.01,13,3,13,0.00
2014-1-13,82,75,70,72,68,64,91,80,67,30.14,30.02,12,2,12,0.00
2014-1-14,83,75,68,73,69,66,97,81,57,30.03,29.92,14,1,14,0.00
2014-1-15,71,65,57,67,59,49,95,81,58,30.02,29.92,17,3,17,0.10
2014-1-16,60,56,47,55,42,26,88,64,31,30.14,29.92,24,4,24,0.00
2014-1-17,67,54,43,46,39,30,85,58,36,30.20,30.08,6,2,9,0.00
2014-1-18,68,57,48,51,41,33,86,56,33,30.22,30.13,15,2,15,0.00
2014-1-19,69,55,42,50,38,33,83,56,28,30.27,30.14,12,2,14,0.00
2014-1-20,76,65,53,59,55,50,93,72,51,30.19,30.03,12,1,12,0.00
2014-1-21,75,66,61,62,59,56,91,80,55,30.05,29.88,10,2,14,0.03
2014-1-22,65,58,47,61,43,30,93,61,28,30.16,29.88,15,4,18,0.01
2014-1-23,72,58,44,56,46,33,82,66,43,30.27,30.15,12,3,12,0.00
2014-1-24,72,62,56,55,53,51,86,73,52,30.36,30.21,15,4,15,0.00
2014-1-25,78,63,52,62,54,49,91,76,47,30.21,30.03,11,1,11,0.00
2014-1-26,78,67,56,65,60,54,96,78,53,30.08,29.97,12,1,12,0.00
2014-1-27,84,72,60,69,63,58,96,78,42,30.03,29.92,11,1,11,0.00
2014-1-28,80,66,61,69,63,60,98,91,68,30.07,29.99,6,0,6,0.00
2014-1-29,79,70,65,73,68,63,97,93,77,30.06,29.97,14,2,14,1.13
2014-1-30,70,66,61,69,64,60,98,95,90,30.10,30.01,12,2,12,0.58
2014-1-31,82,75,68,75,72,68,98,91,74,30.07,29.98,9,1,9,0.87
2014-2-1,81,74,71,73,71,70,96,93,77,30.12,30.04,11,0,11,0.01
2014-2-2,81,76,70,73,70,67,94,84,75,30.16,30.08,13,2,13,0.08
2014-2-3,84,78,74,74,72,69,89,83,73,30.10,30.01,5,2,16,0.00
2014-2-4,82,77,74,73,72,70,90,83,71,30.12,30.04,6,3,20,0.01
2014-2-5,84,74,71,74,71,69,97,90,64,30.08,29.99,5,0,13,0.77
2014-2-6,84,73,70,74,71,69,98,93,66,30.09,30.01,5,0,12,0.01
2014-2-7,82,75,69,72,70,68,98,85,70,30.12,30.03,7,2,11,0.00
2014-2-25,86,77,69,71,68,63,96,75,49,30.02,29.90,5,2,13,0.00
2014-2-26,86,75,65,69,65,60,96,74,43,29.95,29.75,6,3,19,0.00
2014-2-27,79,73,66,70,66,62,94,80,58,29.93,29.76,6,3,13,0.14
2014-2-28,75,67,61,65,60,54,96,80,56,30.06,29.88,6,3,13,0.06
2014-3-1,80,69,58,64,59,55,93,71,50,30.15,30.04,5,2,13,0.00
2014-3-2,81,74,66,65,61,59,81,66,56,30.18,30.07,6,2,15,0.00
2014-3-3,83,73,64,65,64,60,91,73,50,30.07,29.97,5,1,15,0.00
2014-3-4,82,73,63,67,64,61,95,76,56,30.06,29.96,12,2,12,0.00
2014-3-5,86,75,69,72,68,65,93,79,53,30.03,29.92,11,1,11,0.01
2014-3-6,88,73,66,75,68,63,97,85,52,29.99,29.78,21,2,33,0.72
2014-3-7,80,71,59,68,61,52,96,72,40,30.02,29.77,18,6,25,0.01
2014-3-8,74,63,55,60,55,49,90,76,48,30.12,30.00,11,2,13,0.00
2014-3-9,80,70,60,66,61,58,95,75,51,30.16,30.07,13,2,13,0.00
2014-3-10,82,72,63,65,62,59,90,71,48,30.11,29.96,14,2,14,0.00
2014-3-11,83,74,62,68,65,60,91,76,56,30.02,29.85,5,1,14,0.00
2014-3-12,86,78,70,72,67,64,91,73,50,29.89,29.75,14,2,18,0.00
2014-3-13,77,69,62,69,57,44,83,66,50,30.15,29.83,19,6,19,0.00
2014-3-14,74,64,58,57,51,46,77,62,48,30.24,30.13,12,3,19,0.00
2014-3-15,82,72,61,61,58,53,87,62,42,30.16,30.04,16,2,16,0.00
2014-3-16,82,76,71,68,64,60,78,67,57,30.04,29.82,17,2,17,0.00
2014-3-17,87,79,74,73,70,68,88,75,58,29.84,29.72,13,1,13,0.00
2014-3-18,80,75,68,73,65,57,93,72,52,30.00,29.70,21,4,21,0.28
2014-3-19,81,73,65,67,64,60,91,75,60,30.06,29.96,13,2,13,0.00
2014-3-20,81,74,68,72,68,62,90,80,67,30.04,29.94,14,2,14,0.00
2014-3-21,84,73,61,72,66,60,97,82,64,30.05,29.95,18,2,18,0.01
2014-3-22,82,77,72,76,70,60,93,78,58,30.07,29.96,12,1,14,0.07
2014-3-23,90,78,69,70,66,61,88,67,46,30.05,29.92,18,3,18,0.00
2014-3-24,77,72,67,70,67,65,93,85,66,30.03,29.89,11,2,11,0.09
2014-3-25,84,72,65,70,66,55,96,83,57,30.01,29.81,21,4,21,0.21
2014-3-26,71,62,54,56,49,39,81,63,42,30.24,30.00,20,5,20,0.00
2014-3-27,78,71,60,64,58,53,81,64,50,30.28,30.16,20,5,20,0.00
2014-3-28,83,76,72,70,66,61,84,71,61,30.18,30.04,22,4,22,0.00
2014-3-29,84,77,69,75,72,66,91,83,71,30.08,29.91,29,2,29,0.09
2014-3-30,81,72,63,68,57,36,93,65,24,30.06,29.89,16,3,16,0.00
2014-3-31,80,69,59,64,58,52,79,67,51,30.13,30.04,13,2,13,0.00
2014-4-1,80,71,60,63,60,58,93,69,53,30.16,30.08,15,2,15,0.00
2014-4-2,82,72,64,63,60,58,82,66,49,30.17,30.10,16,2,16,0.00
2014-4-3,83,75,70,66,64,60,73,68,57,30.14,30.05,10,3,17,0.00
2014-4-4,85,77,72,67,65,62,77,66,51,30.07,29.99,14,1,14,0.00
2014-4-5,86,75,68,68,66,64,92,77,51,30.04,29.96,13,1,14,0.00
2014-4-6,87,77,69,70,68,66,92,73,53,30.03,29.92,12,2,15,0.00
2014-4-7,88,81,75,76,72,68,90,76,61,29.98,29.86,11,1,13,0.00
2014-4-8,91,79,68,76,71,63,95,79,53,29.91,29.74,25,3,25,0.19
2014-4-9,78,71,65,64,56,49,85,61,37,30.14,29.87,22,5,22,0.00
2014-4-10,79,72,64,59,55,49,71,54,38,30.25,30.12,17,4,17,0.00
2014-4-11,83,74,66,69,64,56,94,70,54,30.21,30.11,12,3,18,0.04
2014-4-12,82,76,71,67,65,63,81,71,56,30.17,30.08,17,3,17,0.00
2014-4-13,78,74,71,73,71,66,96,88,74,30.08,29.98,11,4,18,1.95
2014-4-14,87,80,74,75,73,71,92,80,62,30.00,29.90,14,2,14,0.00
2014-4-15,88,79,71,76,73,68,94,84,64,29.92,29.81,19,1,19,0.69
2014-4-16,82,76,71,73,70,68,95,84,67,30.07,29.90,16,3,16,1.36
2014-4-17,82,76,73,74,72,71,95,89,76,30.13,30.02,12,4,16,0.59
2014-4-18,85,78,72,74,72,70,96,82,68,30.08,29.94,12,2,15,0.26
2014-4-19,88,78,69,74,70,61,95,76,50,29.98,29.85,19,3,19,0.19
2014-4-20,80,70,66,65,61,58,83,74,54,30.03,29.93,13,4,13,0.00
2014-4-21,82,71,62,68,63,58,91,76,51,30.03,29.91,14,3,14,0.00
2014-4-22,83,74,67,70,66,63,90,77,55,29.95,29.83,11,1,11,0.00
2014-4-23,86,75,65,71,66,62,91,73,46,29.95,29.86,14,2,14,0.00
2014-4-24,86,80,67,71,68,63,90,68,53,30.00,29.91,13,2,13,0.00
2014-4-25,90,79,70,73,69,62,89,73,44,30.01,29.90,12,1,12,0.00
2014-4-26,88,79,70,75,70,65,89,74,53,30.00,29.91,12,2,16,0.00
2014-4-27,90,81,72,73,68,61,87,67,41,30.01,29.93,14,2,14,0.00
2014-4-28,90,82,78,75,72,66,85,72,55,29.98,29.88,15,3,15,0.00
2014-4-29,90,82,78,77,75,73,89,78,65,30.01,29.86,18,2,18,0.00
2014-4-30,90,83,78,76,75,72,88,78,61,30.05,29.94,18,2,18,0.00
2014-5-1,90,82,78,76,74,69,89,77,59,30.03,29.93,17,1,17,0.00
2014-5-2,89,82,77,75,72,67,88,72,56,29.98,29.85,15,1,15,0.00
2014-5-3,90,77,72,75,72,69,96,84,56,29.99,29.89,8,1,24,2.75
2014-5-4,87,76,68,72,65,55,97,72,36,30.05,29.95,18,4,18,0.01
2014-5-5,86,77,67,69,64,60,89,66,46,30.04,29.97,15,2,15,0.00
2014-5-6,86,78,67,70,66,63,91,70,53,30.03,29.96,14,3,14,0.00
2014-5-7,88,81,76,72,69,67,76,67,57,30.12,29.99,21,4,21,0.00
2014-5-8,87,81,78,73,70,68,77,68,59,30.18,30.08,18,6,18,0.00
2014-5-9,88,81,77,73,70,67,77,68,55,30.17,30.07,18,5,18,0.00
2014-5-10,86,80,78,73,71,69,78,74,63,30.14,30.05,19,5,19,0.00
2014-5-11,86,82,78,72,69,66,80,66,54,30.13,30.04,18,5,18,0.00
2014-5-12,88,81,76,72,70,68,84,70,57,30.11,30.03,23,6,23,0.03
2014-5-13,79,79,79,71,71,71,76,76,76,30.04,30.03,18,6,18,0.00
2014-5-14,87,80,75,75,73,71,93,79,65,30.04,29.95,8,4,23,0.24
2014-5-15,84,76,74,77,74,71,96,93,79,30.00,29.91,3,0,16,0.56
2014-5-16,79,74,69,74,68,47,97,81,40,30.07,29.93,14,3,14,0.01
2014-5-17,85,75,66,64,60,57,78,61,46,30.09,30.02,25,5,25,0.00
2014-5-18,84,78,74,66,63,58,69,61,53,30.10,30.03,13,5,21,0.00
2014-5-19,84,79,75,68,65,62,72,64,53,30.13,30.05,22,6,22,0.00
2014-5-20,85,79,75,70,66,63,73,65,54,30.17,30.09,23,5,23,0.00
2014-5-21,84,78,74,67,64,60,69,61,47,30.16,30.09,13,5,15,0.00
2014-5-22,86,78,70,69,66,58,88,67,43,30.13,30.04,9,2,13,0.00
2014-5-23,92,80,70,73,69,65,92,71,46,30.09,29.99,12,1,12,0.00
2014-5-24,92,82,73,74,71,65,89,70,46,30.08,29.99,14,1,14,0.00
2014-5-25,89,81,74,75,72,69,91,76,57,30.11,30.00,16,2,16,0.00
2014-5-26,90,82,75,75,72,70,87,73,57,30.15,30.06,16,3,16,0.00
2014-5-31,88,82,77,75,74,73,89,76,65,30.01,29.95,6,3,14,0.01
2014-6-1,87,82,78,77,74,71,86,78,66,30.03,29.95,8,4,19,0.02
2014-6-2,81,79,75,74,72,69,93,81,71,30.08,29.97,8,6,20,0.26
2014-6-3,82,79,77,70,68,64,77,69,60,30.05,29.97,6,4,15,0.00
2014-6-4,82,78,74,74,70,69,89,78,69,29.97,29.91,6,3,14,0.10
2014-6-5,87,80,71,73,69,67,88,69,55,29.97,29.88,6,3,16,0.00
2014-6-6,91,81,71,75,70,67,92,71,48,29.98,29.89,6,2,15,0.00
2014-6-7,92,83,76,77,74,70,94,75,50,29.99,29.91,12,1,12,0.00
2014-6-8,88,78,71,77,72,68,94,83,66,30.00,29.91,14,1,14,1.06
2014-6-9,90,79,72,78,72,69,95,81,57,29.99,29.89,13,1,13,0.00
2014-6-10,92,79,74,78,73,68,92,82,57,30.02,29.96,12,1,12,0.09
2014-6-11,91,79,74,78,73,70,95,82,62,30.01,29.93,14,0,14,0.10
2014-6-12,91,78,72,76,72,68,94,83,54,30.05,29.94,12,1,12,0.46
2014-6-13,90,77,72,79,73,70,96,89,65,30.06,29.96,15,1,15,0.38
2014-6-14,90,79,72,79,74,71,98,85,61,30.09,29.98,13,1,13,0.01
2014-6-15,90,82,78,78,76,74,88,81,63,30.11,30.01,14,3,18,0.00
2014-6-16,89,82,77,76,73,69,91,76,56,30.14,30.05,18,3,18,0.00
2014-6-17,80,78,73,74,71,69,94,82,71,30.13,30.04,11,1,19,0.43
2014-6-18,83,78,74,76,73,70,94,84,70,30.10,30.03,18,2,18,0.02
2014-6-19,89,78,71,77,72,69,96,84,61,30.10,30.02,11,1,14,0.55
2014-6-20,90,76,72,76,73,71,97,89,59,30.08,30.01,7,0,7,0.01
2014-6-21,87,76,73,78,74,71,96,92,64,30.02,29.94,4,0,18,0.33
2014-6-22,92,79,72,78,74,68,96,86,58,30.02,29.90,22,1,22,0.32
2014-6-23,91,82,73,78,75,71,97,80,59,30.10,29.95,5,1,14,0.02
2014-6-24,94,84,76,77,74,71,92,74,53,30.14,30.06,14,2,14,0.00
2014-6-25,92,84,77,78,76,73,90,79,59,30.13,30.03,12,1,16,0.01
2014-6-26,84,77,75,78,74,73,94,91,81,30.10,30.04,7,1,7,0.00
2014-6-27,91,83,78,77,75,72,93,76,56,30.11,30.00,5,2,14,0.00
2014-6-28,92,83,76,77,75,72,91,77,52,30.13,30.04,6,1,15,0.00
2014-6-29,97,84,77,76,74,71,89,75,45,30.12,30.05,11,1,11,0.00
2014-6-30,96,84,75,76,74,72,91,73,51,30.05,29.88,16,3,16,0.00
2014-7-1,80,78,78,76,75,74,90,89,87,29.93,29.85,10,2,10,0.00
2014-7-2,92,79,76,79,75,72,95,89,60,30.00,29.85,6,1,24,0.27
2014-7-3,94,83,77,81,76,70,94,81,54,30.10,29.98,19,1,19,0.30
2014-7-4,93,82,77,80,75,70,92,80,61,30.12,30.06,15,1,15,0.00
2014-7-5,88,81,76,81,75,71,94,83,72,30.13,30.04,9,1,9,0.59
2014-7-6,85,80,76,79,76,73,95,87,78,30.09,30.01,14,0,14,0.51
2014-7-7,91,83,78,80,77,75,93,82,66,30.10,30.00,12,1,12,0.05
2014-7-8,92,80,75,81,76,72,96,86,67,30.14,30.04,14,1,14,0.48
2014-7-9,92,78,75,80,75,73,97,90,62,30.13,30.05,15,1,15,0.13
2014-7-10,91,79,74,80,75,73,97,88,62,30.12,30.04,15,1,15,0.15
2014-7-11,92,84,76,79,77,75,95,80,62,30.13,30.04,18,3,18,0.01
2014-7-12,92,85,78,79,76,73,87,76,62,30.11,30.05,15,3,15,0.00
2014-7-13,92,84,79,79,76,73,91,77,59,30.09,30.02,14,2,15,0.08
2014-7-14,93,84,78,79,76,74,92,76,60,30.08,30.01,11,1,15,0.00
2014-7-15,81,79,78,75,75,74,89,86,82,30.03,29.99,3,0,3,0.00
2014-7-16,94,81,77,78,75,73,91,84,54,29.99,29.94,6,1,18,0.10
2014-7-17,90,80,74,79,75,71,94,86,70,30.07,29.94,6,1,22,0.40
2014-7-18,96,85,76,78,76,73,94,77,49,30.08,29.98,6,2,13,0.00
2014-7-19,94,85,78,79,76,75,94,77,57,30.07,29.99,5,2,13,0.00
2014-7-20,94,86,79,78,76,75,90,74,57,30.05,29.97,5,2,14,0.00
2014-7-21,93,80,78,78,76,75,91,86,58,30.04,29.98,5,0,15,0.05
2014-7-22,92,81,77,80,76,74,95,87,64,30.07,29.97,11,0,11,1.28
2014-7-23,90,82,77,82,78,75,97,88,68,30.09,30.00,9,0,9,1.27
2014-7-24,93,84,76,80,76,74,95,78,57,30.05,29.98,15,1,15,0.06
2014-7-25,94,86,77,80,77,74,93,76,59,30.08,30.00,15,1,15,0.00
2014-7-26,88,83,75,80,77,72,93,82,64,30.12,30.02,7,0,7,0.70
2014-7-27,95,86,78,79,76,73,93,74,52,30.10,30.03,12,1,12,0.00
2014-7-28,98,88,80,79,76,68,89,70,41,30.07,29.97,13,2,13,0.00
2014-7-29,97,86,80,79,76,72,91,74,49,30.02,29.92,14,1,14,0.04
2014-7-30,93,82,75,80,77,72,95,85,63,29.99,29.91,15,1,15,0.88
2014-7-31,91,79,76,80,76,74,96,91,66,30.00,29.93,11,0,11,1.25
2014-8-1,94,84,76,80,77,75,96,80,58,30.00,29.91,14,2,14,0.01
2014-8-2,94,84,78,82,77,74,93,80,60,29.97,29.87,12,1,12,0.15
2014-8-3,87,81,74,80,77,70,95,88,75,29.96,29.85,15,1,15,1.00
2014-8-4,88,78,74,79,75,72,97,91,72,30.01,29.86,12,1,12,0.63
2014-8-5,92,83,75,79,76,72,95,80,56,30.07,29.96,13,1,13,0.01
2014-8-6,93,84,77,80,76,73,93,78,55,30.05,29.97,11,1,11,0.00
2014-8-7,94,85,77,80,76,72,93,77,58,30.02,29.92,16,1,16,0.00
2014-8-8,94,84,77,79,76,73,94,78,57,30.05,29.96,12,1,12,0.02
2014-8-9,95,85,79,79,77,73,92,78,50,30.07,29.99,9,0,9,0.00
2014-8-10,95,85,78,81,77,71,96,78,60,30.07,29.99,3,1,12,0.00
2014-8-11,93,86,77,78,75,73,92,71,58,30.06,29.97,9,0,12,0.00
2014-8-12,92,84,77,79,76,74,92,78,61,30.04,29.96,11,1,11,0.22
2014-8-13,95,85,77,79,76,74,94,75,53,30.03,29.95,14,1,14,0.00
2014-8-14,95,84,78,79,77,75,94,81,55,30.04,29.96,13,0,13,0.53
2014-8-15,96,82,76,80,77,74,96,86,55,30.06,29.95,15,1,15,0.35
2014-8-16,94,79,75,81,75,71,97,89,59,30.09,29.99,16,0,16,0.43
2014-8-17,94,84,76,82,76,70,97,81,56,30.10,30.02,13,1,13,0.01
2014-8-18,95,86,77,80,77,75,93,76,56,30.07,29.96,15,1,15,0.00
2014-8-19,95,86,79,80,78,73,92,75,51,30.03,29.95,11,1,11,0.00
2014-8-20,94,87,79,80,77,75,90,74,55,30.08,29.97,13,1,13,0.00
2014-8-21,94,86,80,81,78,75,90,75,57,30.11,30.02,14,2,14,0.23
2014-8-22,94,87,80,80,77,74,89,72,58,30.09,29.96,13,2,13,0.00
2014-8-23,96,87,79,78,76,73,88,72,52,29.99,29.84,14,2,14,0.00
2014-8-24,96,87,79,78,76,73,90,70,49,29.86,29.73,14,2,14,0.00
2014-8-25,94,84,80,80,78,77,91,83,61,29.78,29.71,16,2,19,0.11
2014-8-26,91,86,83,77,74,71,79,68,57,29.88,29.75,8,5,22,0.00
2014-8-27,92,85,77,76,73,70,85,69,55,29.97,29.86,7,3,15,0.00
2014-8-28,91,85,81,81,77,74,88,79,64,30.01,29.92,5,1,12,0.22
2014-8-29,93,86,79,80,78,77,93,78,62,30.09,29.97,9,2,14,0.01
2014-8-30,94,87,81,79,78,75,89,75,59,30.10,30.02,18,3,18,0.05
2014-8-31,92,86,81,79,77,75,88,75,63,30.10,30.03,16,4,18,0.04
2014-9-1,93,87,83,78,76,74,82,72,57,30.09,30.01,15,3,15,0.01
2014-9-2,90,83,81,76,75,74,83,76,62,30.07,29.98,13,2,13,0.00
2014-9-3,89,82,76,79,75,72,94,80,63,30.04,29.95,5,2,13,0.06
2014-9-4,91,82,76,78,76,72,96,81,54,30.10,30.00,7,0,11,0.18
2014-9-5,93,85,79,81,78,75,92,79,64,30.10,30.00,14,2,14,0.03
2014-9-6,90,84,82,79,77,75,87,81,68,30.05,29.94,8,2,14,0.02
2014-9-7,92,85,79,80,76,74,92,76,59,30.01,29.93,14,2,17,0.00
2014-9-8,93,85,78,78,75,72,90,73,53,30.05,29.96,14,2,15,0.00
2014-9-9,93,85,77,78,74,71,92,72,54,30.04,29.95,14,3,15,0.20
2014-9-10,91,84,78,77,75,73,91,76,60,30.00,29.92,15,2,15,0.07
2014-9-11,86,79,75,78,75,73,95,86,70,30.00,29.92,10,0,10,0.99
2014-9-12,90,80,72,77,74,71,96,84,59,30.01,29.90,12,1,12,0.62
2014-9-13,90,80,74,78,75,72,96,87,63,30.08,29.95,14,1,16,1.17
2014-9-14,91,81,74,78,75,72,97,84,58,30.12,30.02,13,1,13,0.12
2014-9-15,92,86,79,78,76,74,90,74,58,30.14,30.05,11,2,13,0.00
2014-9-16,92,82,78,80,76,74,93,82,61,30.11,29.96,8,1,9,0.20
2014-9-17,94,81,75,76,73,70,94,80,46,30.00,29.85,17,1,19,0.07
2014-9-18,90,80,75,80,75,72,95,85,65,29.93,29.84,9,1,11,0.77
2014-9-19,88,78,76,79,76,74,97,92,70,29.95,29.87,7,0,9,0.34
2014-9-20,92,79,75,80,75,72,97,88,58,29.96,29.84,12,0,14,0.19
2014-9-21,91,80,74,77,74,70,97,84,55,30.03,29.91,17,1,22,2.35
2014-9-22,89,79,74,80,75,73,98,87,61,30.04,29.92,12,1,12,0.06
2014-9-23,84,78,73,77,74,70,96,87,74,30.03,29.91,11,1,11,0.46
2014-9-24,88,81,75,78,75,71,96,83,66,30.03,29.94,13,1,13,0.02
2014-9-25,89,80,77,81,77,71,96,90,73,30.04,29.95,17,1,17,0.81
2014-9-26,90,82,76,81,77,76,97,86,72,29.98,29.90,14,2,15,0.24
2014-9-27,90,84,78,80,77,75,91,79,66,29.97,29.89,16,3,16,0.08
2014-9-28,91,84,78,79,77,74,94,81,62,29.97,29.88,15,2,15,0.13
2014-9-29,91,83,76,79,76,74,95,81,63,29.93,29.80,14,1,14,0.72
2014-9-30,91,81,76,81,76,74,97,86,65,29.87,29.79,17,1,21,0.12
2014-10-1,94,84,77,80,76,74,95,78,56,29.97,29.84,13,2,13,0.00
2014-10-2,94,85,78,79,76,73,93,76,54,30.02,29.92,12,2,12,0.00
2014-10-3,92,84,74,80,76,70,95,80,58,30.02,29.91,17,1,18,0.65
2014-10-4,92,82,76,80,75,73,97,82,55,29.98,29.80,16,3,19,0.11
2014-10-5,87,77,68,73,66,59,88,70,40,29.98,29.87,12,2,14,0.00
2014-10-6,86,79,71,72,70,66,90,74,59,30.04,29.94,14,3,15,0.00
2014-10-7,84,80,76,76,74,72,94,81,73,30.08,29.98,12,1,12,0.20
2014-10-8,77,76,75,73,73,72,91,89,86,30.06,30.03,0,0,1,0.00
2014-10-9,89,83,78,77,74,70,86,74,63,30.05,29.96,6,4,17,0.00
2014-10-10,89,83,80,74,72,69,79,69,57,30.02,29.93,7,4,18,0.00
2014-10-11,89,84,80,75,72,70,76,68,59,30.00,29.93,13,4,15,0.00
2014-10-12,89,83,80,76,74,71,82,74,62,30.04,29.95,17,4,17,0.00
2014-10-13,89,83,78,78,74,72,90,75,65,30.06,29.99,20,5,20,0.09
2014-10-14,90,84,76,79,76,72,89,77,66,30.01,29.91,17,2,17,0.19
2014-10-15,90,83,75,80,77,73,96,83,66,29.98,29.88,8,0,8,0.22
2014-10-16,86,79,71,76,65,61,91,62,45,29.96,29.85,14,3,14,0.00
2014-10-17,87,76,66,66,61,54,86,63,37,29.97,29.88,7,1,9,0.00
2014-10-18,87,76,66,68,65,62,93,71,48,29.97,29.88,13,1,13,0.00
2014-10-19,87,78,69,69,67,64,90,71,52,30.00,29.93,13,2,13,0.00
2014-10-20,79,74,71,69,66,65,85,76,67,29.99,29.95,6,0,6,0.00